Terminal Aerodrome Forecast
Issued by NWS Cleveland, OH

Home | Current Version | Previous Version | Text Only | Print | Product List | Glossary Off
Versions: 1 2 3 4 5 6 7 8 9 10 11 12 13 14 15 16 17 18 19 20

000
FTUS41 KCLE 160900 AAB
TAFTOL
TAF AMD
KTOL 160919Z 1609/1706 12004KT 3SM -RA BR SCT006 OVC014
      TEMPO 1610/1614 2SM -DZ BR OVC006
     FM161400 24008KT 4SM -SHRA BR OVC006
     FM170000 25010KT 6SM BR OVC008=

USA.gov is the U.S. government's official web portal to all federal, state and local government web resources and services.